createdAt,value
2019-01-29T00:02:04.594Z,97944.91
2019-01-29T00:04:36.718Z,97944.88
2019-01-29T00:07:08.999Z,97948.05
2019-01-29T00:09:39.916Z,97945.09
2019-01-29T00:12:11.931Z,97956.52
2019-01-29T00:14:43.951Z,97955.03
2019-01-29T00:17:15.658Z,97964.53
2019-01-29T00:19:49.824Z,97962.33
2019-01-29T00:22:33.108Z,97975.08
2019-01-29T00:24:59.010Z,97974.09
2019-01-29T00:27:30.584Z,97980.86
2019-01-29T00:30:02.684Z,97984.56
2019-01-29T00:32:34.376Z,98006.77
2019-01-29T00:35:07.468Z,98005.17
2019-01-29T00:37:39.600Z,98005.97
2019-01-29T00:40:12.435Z,98009.47
2019-01-29T00:42:44.436Z,98013.05
2019-01-29T00:45:17.681Z,98023.90
2019-01-29T00:47:49.277Z,98022.30
2019-01-29T00:50:22.019Z,98043.20
2019-01-29T00:52:53.590Z,98026.77
2019-01-29T00:55:24.727Z,98037.84
2019-01-29T00:57:56.351Z,98044.50
2019-01-29T01:00:27.540Z,98044.70
2019-01-29T01:02:59.754Z,98045.11
2019-01-29T01:05:32.910Z,98056.84
2019-01-29T01:08:04.769Z,98051.36
2019-01-29T01:10:36.682Z,98055.16
2019-01-29T01:13:07.979Z,98058.83
2019-01-29T01:15:39.074Z,98062.41
2019-01-29T01:18:11.177Z,98064.91
2019-01-29T01:20:41.478Z,98080.04
2019-01-29T01:23:11.840Z,98083.13
2019-01-29T01:25:42.908Z,98089.11
2019-01-29T01:28:14.363Z,98093.49
2019-01-29T01:30:44.769Z,98090.52
2019-01-29T01:33:16.268Z,98094.17
2019-01-29T01:35:47.168Z,98098.55
2019-01-29T01:38:18.347Z,98105.25
2019-01-29T01:40:50.355Z,98102.85
2019-01-29T01:43:21.853Z,98101.86
2019-01-29T01:45:52.726Z,98104.95
2019-01-29T01:48:23.485Z,98106.31
2019-01-29T01:50:54.788Z,98107.00
2019-01-29T01:53:25.616Z,98106.13
2019-01-29T01:55:56.449Z,98114.28
2019-01-29T01:58:27.680Z,98120.88
2019-01-29T02:00:58.290Z,98121.19
2019-01-29T02:03:28.571Z,98131.55
2019-01-29T02:05:59.493Z,98123.17
2019-01-29T02:08:29.685Z,98133.34
2019-01-29T02:11:00.006Z,98139.63
2019-01-29T02:13:31.851Z,98148.70
2019-01-29T02:16:03.041Z,98153.50
2019-01-29T02:18:33.429Z,98155.06
2019-01-29T02:21:04.553Z,98153.39
2019-01-29T02:23:36.126Z,98160.25
2019-01-29T02:26:07.641Z,98167.63
2019-01-29T02:28:40.120Z,98162.44
2019-01-29T02:31:11.637Z,98163.94
2019-01-29T02:33:42.741Z,98167.83
2019-01-29T02:36:13.926Z,98174.53
2019-01-29T02:38:44.942Z,98174.61
2019-01-29T02:41:17.603Z,98184.27
2019-01-29T02:43:48.624Z,98180.58
2019-01-29T02:46:19.449Z,98186.64
2019-01-29T02:48:50.824Z,98177.77
2019-01-29T02:51:21.201Z,98186.32
2019-01-29T02:53:51.875Z,98187.41
2019-01-29T02:56:22.262Z,98191.79
2019-01-29T02:58:53.340Z,98196.39
2019-01-29T03:01:23.756Z,98196.39
2019-01-29T03:03:54.145Z,98189.80
2019-01-29T03:06:24.811Z,98200.93
2019-01-29T03:08:55.218Z,98202.51
2019-01-29T03:11:25.670Z,98208.77
2019-01-29T03:13:56.652Z,98209.61
2019-01-29T03:16:27.324Z,98213.58
2019-01-29T03:18:57.518Z,98214.45
2019-01-29T03:21:28.726Z,98216.91
2019-01-29T03:24:03.702Z,98225.97
2019-01-29T03:26:35.650Z,98228.33
2019-01-29T03:29:07.648Z,98237.88
2019-01-29T03:31:38.033Z,98232.70
2019-01-29T03:34:08.499Z,98238.16
2019-01-29T03:36:38.950Z,98237.17
2019-01-29T03:39:10.335Z,98234.17
2019-01-29T03:41:40.739Z,98250.50
2019-01-29T03:44:11.574Z,98245.07
2019-01-29T03:46:42.268Z,98238.33
2019-01-29T03:49:12.383Z,98241.59
2019-01-29T03:51:43.051Z,98242.16
2019-01-29T03:54:13.656Z,98242.75
2019-01-29T03:56:44.005Z,98249.34
2019-01-29T03:59:14.667Z,98244.98
2019-01-29T04:01:45.100Z,98251.94
2019-01-29T04:04:15.519Z,98251.50
2019-01-29T04:06:46.084Z,98259.08
2019-01-29T04:09:16.870Z,98166.02
2019-01-29T04:11:47.631Z,98258.80
2019-01-29T04:14:18.718Z,98263.17
2019-01-29T04:16:48.871Z,98258.49
2019-01-29T04:19:19.267Z,98272.04
2019-01-29T04:21:50.741Z,98262.09
2019-01-29T04:24:21.480Z,98265.76
2019-01-29T04:26:52.201Z,98271.24
2019-01-29T04:29:22.261Z,98270.36
2019-01-29T04:31:52.449Z,98271.24
2019-01-29T04:34:23.843Z,98274.76
2019-01-29T04:36:54.502Z,98285.77
2019-01-29T04:39:24.675Z,98278.66
2019-01-29T04:41:55.373Z,98275.21
2019-01-29T04:44:25.824Z,98274.27
2019-01-29T04:46:56.067Z,98270.67
2019-01-29T04:49:26.183Z,98272.98
2019-01-29T04:54:24.904Z,98279.45
2019-01-29T04:56:55.323Z,98286.45
2019-01-29T04:59:25.160Z,98285.47
2019-01-29T05:01:55.578Z,98279.94
2019-01-29T05:04:26.212Z,98281.54
2019-01-29T05:06:56.121Z,98282.34
2019-01-29T05:09:26.206Z,98275.73
2019-01-29T05:11:58.569Z,98274.16
2019-01-29T05:14:30.665Z,98272.06
2019-01-29T05:17:00.702Z,98272.50
2019-01-29T05:19:30.813Z,98272.98
2019-01-29T05:22:00.977Z,98283.25
2019-01-29T05:24:35.809Z,98288.59
2019-01-29T05:27:06.253Z,98287.41
2019-01-29T05:29:36.225Z,98292.62
2019-01-29T05:32:06.517Z,98294.28
2019-01-29T05:34:36.696Z,98302.05
2019-01-29T05:37:06.890Z,98301.41
2019-01-29T05:39:37.849Z,98308.39
2019-01-29T05:42:08.735Z,98305.69
2019-01-29T05:44:38.715Z,98306.09
2019-01-29T05:47:08.706Z,98312.96
2019-01-29T05:49:38.906Z,98320.76
2019-01-29T05:52:09.150Z,98320.29
2019-01-29T05:54:43.850Z,98249.20
2019-01-29T05:57:13.826Z,98335.99
2019-01-29T05:59:44.602Z,98334.54
2019-01-29T06:02:15.934Z,98343.51
2019-01-29T06:04:45.964Z,98341.20
2019-01-29T06:07:16.133Z,98348.81
2019-01-29T06:09:46.530Z,98347.70
2019-01-29T06:12:17.066Z,98353.47
2019-01-29T06:14:47.218Z,98350.36
2019-01-29T06:17:17.228Z,98356.47
2019-01-29T06:19:47.546Z,98358.06
2019-01-29T06:22:17.490Z,98361.46
2019-01-29T06:24:47.654Z,98348.13
2019-01-29T06:27:18.250Z,98350.17
2019-01-29T06:29:48.192Z,98344.19
2019-01-29T06:32:18.329Z,98339.94
2019-01-29T06:34:48.845Z,98352.39
2019-01-29T06:37:19.074Z,98268.36
2019-01-29T06:39:49.413Z,98363.61
2019-01-29T06:42:19.575Z,98359.63
2019-01-29T06:44:49.478Z,98372.39
2019-01-29T06:47:19.718Z,98363.39
2019-01-29T06:49:54.433Z,98373.78
2019-01-29T06:52:24.735Z,98374.30
2019-01-29T06:54:54.620Z,98376.52
2019-01-29T06:57:24.675Z,98375.71
2019-01-29T06:59:55.283Z,98375.01
2019-01-29T07:02:25.272Z,98374.30
2019-01-29T07:04:55.690Z,98372.84
2019-01-29T07:07:25.582Z,98371.45
2019-01-29T07:09:55.587Z,98375.68
2019-01-29T07:12:25.905Z,98373.03
2019-01-29T07:14:56.094Z,98377.46
2019-01-29T07:17:47.773Z,98375.33
2019-01-29T07:20:18.507Z,98383.63
2019-01-29T07:22:48.397Z,98393.17
2019-01-29T07:25:19.269Z,98395.45
2019-01-29T07:27:49.313Z,98400.77
2019-01-29T07:30:19.480Z,98328.44
2019-01-29T07:32:49.970Z,98424.78
2019-01-29T07:35:21.560Z,98431.51
2019-01-29T07:37:52.454Z,98442.95
2019-01-29T07:40:22.953Z,98438.42
2019-01-29T07:42:54.690Z,98434.88
2019-01-29T07:45:25.260Z,98443.67
2019-01-29T07:47:55.310Z,98443.09
2019-01-29T07:50:25.319Z,98447.59
2019-01-29T07:52:58.886Z,98454.78
2019-01-29T07:55:29.426Z,98456.13
2019-01-29T07:58:00.015Z,98449.09
2019-01-29T08:00:30.264Z,98447.47
2019-01-29T08:03:00.655Z,98448.86
2019-01-29T08:05:31.741Z,98380.52
2019-01-29T08:08:05.616Z,98358.20
2019-01-29T08:10:38.737Z,98441.34
2019-01-29T08:13:09.499Z,98441.34
2019-01-29T08:15:39.493Z,98421.27
2019-01-29T08:18:10.282Z,98450.66
2019-01-29T08:20:40.602Z,98445.54
2019-01-29T08:23:10.550Z,98450.45
2019-01-29T08:25:47.645Z,98455.66
2019-01-29T08:28:13.589Z,98460.47
2019-01-29T08:30:43.514Z,98409.13
2019-01-29T08:33:14.038Z,98460.20
2019-01-29T08:35:44.477Z,98454.73
2019-01-29T08:38:15.817Z,98460.44
2019-01-29T08:40:45.967Z,98458.54
2019-01-29T08:43:16.284Z,98449.14
2019-01-29T08:45:46.113Z,98465.11
2019-01-29T08:48:16.700Z,98467.73
2019-01-29T08:50:46.989Z,98384.99
2019-01-29T08:53:17.327Z,98467.92
2019-01-29T08:55:48.191Z,98472.21
2019-01-29T08:58:27.171Z,98470.55
2019-01-29T09:00:56.067Z,98468.84
2019-01-29T09:03:26.164Z,98465.36
2019-01-29T09:05:57.526Z,98474.33
2019-01-29T09:08:27.866Z,98470.71
2019-01-29T09:10:58.110Z,98474.23
2019-01-29T09:13:28.563Z,98475.92
2019-01-29T09:15:58.617Z,98463.16
2019-01-29T09:18:28.984Z,98474.73
2019-01-29T09:21:01.224Z,98473.94
2019-01-29T09:26:22.531Z,98474.33
2019-01-29T09:28:52.937Z,98473.22
2019-01-29T09:31:23.408Z,98470.42
2019-01-29T09:33:53.506Z,98475.60
2019-01-29T09:36:24.078Z,98486.11
2019-01-29T09:38:56.831Z,98475.60
2019-01-29T09:41:26.972Z,98476.87
2019-01-29T09:43:58.154Z,98480.92
2019-01-29T09:46:29.244Z,98468.00
2019-01-29T09:48:59.389Z,98465.20
2019-01-29T09:51:29.940Z,98474.66
2019-01-29T09:54:00.084Z,98466.55
2019-01-29T09:56:33.128Z,98465.02
2019-01-29T09:59:06.806Z,98458.88
2019-01-29T10:01:37.559Z,98467.17
2019-01-29T10:04:08.508Z,98463.62
2019-01-29T10:06:39.065Z,98471.47
2019-01-29T10:09:09.875Z,98462.56
2019-01-29T10:11:43.643Z,98467.20
2019-01-29T10:14:18.735Z,98459.09
2019-01-29T10:16:49.142Z,98458.75
2019-01-29T10:19:22.648Z,98449.63
2019-01-29T10:21:52.822Z,98455.73
2019-01-29T10:24:22.840Z,98455.86
2019-01-29T10:26:53.663Z,98451.10
2019-01-29T10:29:23.901Z,98451.10
2019-01-29T10:31:56.340Z,98448.86
2019-01-29T10:34:30.352Z,98448.86
2019-01-29T10:37:02.083Z,98441.30
2019-01-29T10:39:35.934Z,98444.26
2019-01-29T10:42:07.783Z,98444.59
2019-01-29T10:44:38.408Z,98437.28
2019-01-29T10:47:11.347Z,98445.09
2019-01-29T10:49:41.927Z,98423.87
2019-01-29T10:52:12.150Z,98434.78
2019-01-29T10:54:42.934Z,98440.79
2019-01-29T10:57:13.427Z,98440.79
2019-01-29T10:59:43.962Z,98421.41
2019-01-29T11:02:14.241Z,98421.41
2019-01-29T11:04:44.755Z,98415.47
2019-01-29T11:07:15.120Z,98415.47
2019-01-29T11:09:48.465Z,98421.20
2019-01-29T11:12:18.631Z,98421.20
2019-01-29T11:14:48.860Z,98423.70
2019-01-29T11:17:20.556Z,98341.46
2019-01-29T11:19:50.870Z,98421.06
2019-01-29T11:22:21.023Z,98421.06
2019-01-29T11:24:51.104Z,98421.41
2019-01-29T11:27:21.380Z,98415.16
2019-01-29T11:29:51.460Z,98415.16
2019-01-29T11:32:21.619Z,98417.45
2019-01-29T11:34:51.909Z,98412.03
2019-01-29T11:37:21.762Z,98427.96
2019-01-29T11:39:52.725Z,98404.95
2019-01-29T11:42:22.841Z,98408.18
2019-01-29T11:44:52.849Z,98408.18
2019-01-29T11:47:22.895Z,98410.39
2019-01-29T11:49:53.257Z,98407.66
2019-01-29T11:52:23.463Z,98419.75
2019-01-29T11:54:53.747Z,98415.38
2019-01-29T11:57:24.358Z,98415.38
2019-01-29T11:59:54.280Z,98407.11
2019-01-29T12:02:28.491Z,98401.44
2019-01-29T12:04:56.752Z,98413.58
2019-01-29T12:07:27.137Z,98405.95
2019-01-29T12:09:57.478Z,98409.72
2019-01-29T12:12:27.579Z,98401.23
2019-01-29T12:14:57.952Z,98397.46
2019-01-29T12:17:31.745Z,98397.46
2019-01-29T12:20:01.973Z,98384.55
2019-01-29T12:22:32.399Z,98384.55
2019-01-29T12:25:02.342Z,98372.77
2019-01-29T12:27:32.232Z,98391.41
2019-01-29T12:30:02.779Z,98381.14
2019-01-29T12:32:32.873Z,98382.03
2019-01-29T12:35:02.832Z,98378.83
2019-01-29T12:37:33.726Z,98375.22
2019-01-29T12:40:03.981Z,98375.22
2019-01-29T12:42:34.063Z,98381.80
2019-01-29T12:45:05.353Z,98378.98
2019-01-29T12:47:35.589Z,98378.03
2019-01-29T12:50:07.950Z,98378.03
2019-01-29T12:52:46.946Z,98373.14
2019-01-29T12:55:17.174Z,98374.92
2019-01-29T12:57:48.752Z,98364.56
2019-01-29T13:00:19.787Z,98371.12
2019-01-29T13:02:50.120Z,98371.12
2019-01-29T13:05:20.320Z,98364.66
2019-01-29T13:07:50.549Z,98363.65
2019-01-29T13:10:21.649Z,98366.86
2019-01-29T13:12:52.400Z,98360.89
2019-01-29T13:15:26.126Z,98360.89
2019-01-29T13:17:56.927Z,98356.39
2019-01-29T13:20:28.933Z,98366.22
2019-01-29T13:22:59.164Z,98355.14
2019-01-29T13:25:29.952Z,98345.18
2019-01-29T13:28:00.849Z,98347.28
2019-01-29T13:30:33.979Z,98349.78
2019-01-29T13:33:06.492Z,98341.03
2019-01-29T13:35:37.535Z,98341.03
2019-01-29T13:38:09.064Z,98335.70
2019-01-29T13:40:39.197Z,98333.86
2019-01-29T13:43:09.661Z,98332.98
2019-01-29T13:45:40.245Z,98332.98
2019-01-29T13:48:14.222Z,98323.25
2019-01-29T13:50:51.343Z,98321.70
2019-01-29T13:53:21.627Z,98326.77
2019-01-29T13:55:51.741Z,98324.40
2019-01-29T13:58:22.638Z,98319.69
2019-01-29T14:00:55.163Z,98328.09
2019-01-29T14:03:28.033Z,98317.50
2019-01-29T14:06:03.243Z,98321.44
2019-01-29T14:08:41.887Z,98324.72
2019-01-29T14:11:18.215Z,98324.72
2019-01-29T14:13:52.608Z,98321.02
2019-01-29T14:16:32.039Z,98321.02
2019-01-29T14:19:08.680Z,98326.73
2019-01-29T14:21:39.935Z,98326.73
2019-01-29T14:24:12.541Z,98240.02
2019-01-29T14:26:48.266Z,98321.26
2019-01-29T14:29:18.386Z,98321.70
2019-01-29T14:31:50.418Z,98320.16
2019-01-29T14:34:21.730Z,98316.76
2019-01-29T14:36:53.982Z,98312.06
2019-01-29T14:39:31.065Z,98318.63
2019-01-29T14:42:03.609Z,98313.56
2019-01-29T14:44:39.147Z,98308.00
2019-01-29T14:47:09.718Z,98312.27
2019-01-29T14:49:40.358Z,98303.63
2019-01-29T14:52:10.711Z,98304.98
2019-01-29T14:54:41.519Z,98297.73
2019-01-29T14:57:11.982Z,98297.66
2019-01-29T14:59:42.334Z,98298.73
2019-01-29T15:02:13.184Z,98303.98
2019-01-29T15:04:43.591Z,98295.66
2019-01-29T15:07:14.287Z,98296.28
2019-01-29T15:09:44.754Z,98290.91
2019-01-29T15:12:18.578Z,98291.80
2019-01-29T15:14:48.763Z,98287.41
2019-01-29T15:17:39.777Z,98290.98
2019-01-29T15:20:12.916Z,98286.02
2019-01-29T15:22:43.066Z,98283.02
2019-01-29T15:25:13.429Z,98283.41
2019-01-29T15:27:43.605Z,98284.31
2019-01-29T15:30:23.745Z,98283.39
2019-01-29T15:32:56.954Z,98280.72
2019-01-29T15:35:34.011Z,98282.61
2019-01-29T15:38:09.528Z,98271.87
2019-01-29T15:40:42.208Z,98272.94
2019-01-29T15:43:13.731Z,98274.26
2019-01-29T15:45:44.738Z,98284.45
2019-01-29T15:48:16.929Z,98275.08
2019-01-29T15:50:47.521Z,98277.88
2019-01-29T15:53:18.014Z,98281.09
2019-01-29T15:55:48.859Z,98278.41
2019-01-29T15:58:22.527Z,98270.41
2019-01-29T16:00:54.005Z,98270.52
2019-01-29T16:03:24.634Z,98269.23
2019-01-29T16:05:55.087Z,98268.23
2019-01-29T16:08:25.316Z,98265.14
2019-01-29T16:10:55.764Z,98264.45
2019-01-29T16:13:26.163Z,98264.34
2019-01-29T16:15:56.487Z,98264.75
2019-01-29T16:18:28.920Z,98262.66
2019-01-29T16:21:03.515Z,98262.77
2019-01-29T16:23:34.995Z,98263.14
2019-01-29T16:26:05.748Z,98178.87
2019-01-29T16:28:40.016Z,98269.04
2019-01-29T16:31:14.335Z,98264.05
2019-01-29T16:33:48.732Z,98273.50
2019-01-29T16:36:24.220Z,98275.27
2019-01-29T16:38:56.068Z,98277.66
2019-01-29T16:41:26.857Z,98269.99
2019-01-29T16:43:59.265Z,98267.59
2019-01-29T16:46:32.191Z,98267.69
2019-01-29T16:49:11.736Z,98268.84
2019-01-29T16:51:47.981Z,98268.27
2019-01-29T16:54:38.381Z,98267.04
2019-01-29T16:57:40.939Z,98259.18
2019-01-29T17:00:17.853Z,98254.98
2019-01-29T17:02:58.336Z,98253.30
2019-01-29T17:05:57.854Z,98247.61
2019-01-29T17:08:31.832Z,98259.05
2019-01-29T17:11:04.722Z,98252.45
2019-01-29T17:13:38.039Z,98247.37
2019-01-29T17:16:10.204Z,98246.85
2019-01-29T17:18:42.446Z,98244.55
2019-01-29T17:21:19.167Z,98242.33
2019-01-29T17:23:51.153Z,98245.31
2019-01-29T17:26:25.064Z,98234.96
2019-01-29T17:28:57.148Z,98234.22
2019-01-29T17:31:34.144Z,98240.97
2019-01-29T17:34:05.588Z,98233.20
2019-01-29T17:36:37.653Z,98230.74
2019-01-29T17:39:10.307Z,98235.42
2019-01-29T17:41:41.613Z,98237.31
2019-01-29T17:44:14.924Z,98231.91
2019-01-29T17:46:46.998Z,98224.15
2019-01-29T17:49:17.743Z,98227.05
2019-01-29T17:51:48.275Z,98221.88
2019-01-29T17:54:18.431Z,98229.42
2019-01-29T17:56:49.485Z,98218.66
2019-01-29T17:59:21.440Z,98216.76
2019-01-29T18:01:53.739Z,98218.85
2019-01-29T18:04:24.291Z,98215.95
2019-01-29T18:07:02.448Z,98201.51
2019-01-29T18:09:33.060Z,98205.17
2019-01-29T18:12:10.173Z,98205.73
2019-01-29T18:14:42.767Z,98203.54
2019-01-29T18:17:19.998Z,98197.25
2019-01-29T18:19:55.189Z,98187.22
2019-01-29T18:22:32.340Z,98193.59
2019-01-29T18:25:09.387Z,98186.50
2019-01-29T18:27:42.987Z,98183.80
2019-01-29T18:30:23.724Z,98184.10
2019-01-29T18:32:54.666Z,98184.41
2019-01-29T18:35:24.971Z,98183.80
2019-01-29T18:37:59.304Z,98177.55
2019-01-29T18:40:33.569Z,98092.34
2019-01-29T18:43:06.051Z,98173.84
2019-01-29T18:45:37.684Z,98175.51
2019-01-29T18:48:13.380Z,98126.18
2019-01-29T18:50:44.343Z,98173.45
2019-01-29T18:53:20.821Z,98167.51
2019-01-29T18:55:57.522Z,98163.66
2019-01-29T18:58:28.774Z,98161.41
2019-01-29T19:01:01.526Z,98158.56
2019-01-29T19:03:32.583Z,98122.38
2019-01-29T19:06:07.122Z,98158.79
2019-01-29T19:08:38.076Z,98144.95
2019-01-29T19:14:07.635Z,98131.15
2019-01-29T19:16:39.507Z,98135.12
2019-01-29T19:19:09.990Z,98127.97
2019-01-29T19:21:40.519Z,98126.87
2019-01-29T19:24:11.158Z,98125.97
2019-01-29T19:26:42.119Z,98122.09
2019-01-29T19:29:20.970Z,98117.60
2019-01-29T19:31:55.824Z,98120.91
2019-01-29T19:34:27.128Z,98118.71
2019-01-29T19:37:03.071Z,98017.31
2019-01-29T19:39:33.393Z,98106.75
2019-01-29T19:42:06.497Z,98100.16
2019-01-29T19:44:38.818Z,98101.26
2019-01-29T19:47:11.779Z,98100.88
2019-01-29T19:49:43.621Z,98098.36
2019-01-29T19:52:13.961Z,98092.98
2019-01-29T19:54:44.560Z,98093.66
2019-01-29T19:57:16.047Z,98092.97
2019-01-29T19:59:49.000Z,98095.73
2019-01-29T20:02:20.797Z,98092.91
2019-01-29T20:04:52.491Z,98083.14
2019-01-29T20:07:27.171Z,98077.08
2019-01-29T20:10:00.490Z,98082.84
2019-01-29T20:12:36.154Z,98083.55
2019-01-29T20:15:09.709Z,98074.06
2019-01-29T20:17:43.166Z,98072.65
2019-01-29T20:20:19.435Z,98070.36
2019-01-29T20:22:52.262Z,98072.95
2019-01-29T20:25:22.840Z,98067.77
2019-01-29T20:27:56.735Z,98064.28
2019-01-29T20:30:31.153Z,98062.48
2019-01-29T20:33:05.096Z,98061.88
2019-01-29T20:35:38.270Z,98061.69
2019-01-29T20:38:10.271Z,98056.20
2019-01-29T20:40:40.659Z,98057.89
2019-01-29T20:43:11.279Z,98053.43
2019-01-29T20:45:41.981Z,98052.72
2019-01-29T20:48:12.696Z,98050.25
2019-01-29T20:50:43.689Z,98045.48
2019-01-29T20:53:19.217Z,98041.99
2019-01-29T20:55:50.296Z,98040.33
2019-01-29T20:58:24.936Z,98037.73
2019-01-29T21:00:55.994Z,98034.64
2019-01-29T21:03:26.212Z,98031.80
2019-01-29T21:05:57.688Z,98034.00
2019-01-29T21:08:32.238Z,98031.88
2019-01-29T21:11:03.391Z,98026.40
2019-01-29T21:13:36.548Z,98023.01
2019-01-29T21:16:13.201Z,98018.20
2019-01-29T21:18:49.012Z,98008.45
2019-01-29T21:21:22.946Z,98021.06
2019-01-29T21:23:56.663Z,98007.03
2019-01-29T21:26:30.737Z,98006.30
2019-01-29T21:29:06.585Z,98007.92
2019-01-29T21:31:39.016Z,98004.92
2019-01-29T21:34:14.293Z,97998.38
2019-01-29T21:36:45.903Z,97999.88
2019-01-29T21:39:25.878Z,97999.00
2019-01-29T21:41:59.628Z,97994.52
2019-01-29T21:44:32.727Z,97993.62
2019-01-29T21:47:04.741Z,97989.55
2019-01-29T21:49:37.949Z,97990.84
2019-01-29T21:52:08.233Z,97984.86
2019-01-29T21:54:39.925Z,97984.66
2019-01-29T21:57:10.402Z,97978.30
2019-01-29T21:59:40.471Z,97974.41
2019-01-29T22:02:11.765Z,97975.80
2019-01-29T22:04:42.313Z,97976.18
2019-01-29T22:07:12.476Z,97960.95
2019-01-29T22:09:42.684Z,97966.72
2019-01-29T22:12:14.352Z,97966.80
2019-01-29T22:14:45.374Z,97965.30
2019-01-29T22:17:15.438Z,97951.67
2019-01-29T22:19:45.702Z,97946.18
2019-01-29T22:22:17.439Z,97949.85
2019-01-29T22:24:47.927Z,97938.51
2019-01-29T22:27:19.482Z,97937.01
2019-01-29T22:29:51.731Z,97943.45
2019-01-29T22:32:24.104Z,97849.26
2019-01-29T22:34:55.982Z,97945.18
2019-01-29T22:37:26.261Z,97941.89
2019-01-29T22:39:57.168Z,97939.09
2019-01-29T22:42:27.317Z,97951.30
2019-01-29T22:45:01.090Z,97953.15
2019-01-29T22:47:31.498Z,97950.78
2019-01-29T22:50:01.683Z,97947.67
2019-01-29T22:52:32.801Z,97947.86
2019-01-29T22:55:04.460Z,97946.75
2019-01-29T22:57:37.537Z,97943.37
2019-01-29T23:00:18.285Z,97943.27
2019-01-29T23:02:48.511Z,97943.37
2019-01-29T23:05:18.772Z,97935.25
2019-01-29T23:07:48.709Z,97929.29
2019-01-29T23:10:20.202Z,97922.03
2019-01-29T23:12:51.438Z,97927.87
2019-01-29T23:15:22.023Z,97924.80
2019-01-29T23:17:55.988Z,97911.80
2019-01-29T23:20:29.170Z,97918.75
2019-01-29T23:23:02.363Z,97909.40
2019-01-29T23:25:32.749Z,97908.48
2019-01-29T23:28:03.502Z,97903.71
2019-01-29T23:30:37.726Z,97894.86
2019-01-29T23:33:07.771Z,97898.92
2019-01-29T23:35:38.044Z,97888.68
2019-01-29T23:38:08.554Z,97896.73
2019-01-29T23:40:38.571Z,97887.58
2019-01-29T23:43:08.967Z,97880.41
2019-01-29T23:45:38.983Z,97886.28
2019-01-29T23:48:10.410Z,97885.85
2019-01-29T23:50:40.375Z,97875.31
2019-01-29T23:53:11.713Z,97881.05
2019-01-29T23:55:42.016Z,97874.07
2019-01-29T23:58:11.979Z,97878.88
